sensor_id;sensor_type;location;lat;lon;timestamp;pressure;altitude;pressure_sealevel;temperature;humidity
52227;BME280;38190;59.928;10.446;2022-08-19T00:02:46;100363.81;;;14.38;100.00
52227;BME280;38190;59.928;10.446;2022-08-19T00:05:46;100355.91;;;14.38;100.00
52227;BME280;38190;59.928;10.446;2022-08-19T00:08:47;100351.22;;;14.53;100.00
52227;BME280;38190;59.928;10.446;2022-08-19T00:11:48;100345.16;;;14.48;100.00
52227;BME280;38190;59.928;10.446;2022-08-19T00:14:48;100335.47;;;14.48;100.00
52227;BME280;38190;59.928;10.446;2022-08-19T00:17:49;100348.53;;;14.54;100.00
52227;BME280;38190;59.928;10.446;2022-08-19T00:20:49;100347.63;;;14.57;100.00
52227;BME280;38190;59.928;10.446;2022-08-19T00:23:50;100340.66;;;14.53;100.00
52227;BME280;38190;59.928;10.446;2022-08-19T00:26:51;100338.03;;;14.51;100.00
52227;BME280;38190;59.928;10.446;2022-08-19T00:29:52;100334.59;;;14.48;100.00
52227;BME280;38190;59.928;10.446;2022-08-19T00:32:53;100343.44;;;14.47;100.00
52227;BME280;38190;59.928;10.446;2022-08-19T00:35:55;100337.13;;;14.54;100.00
52227;BME280;38190;59.928;10.446;2022-08-19T00:38:56;100339.81;;;14.51;100.00
52227;BME280;38190;59.928;10.446;2022-08-19T00:41:56;100331.84;;;14.54;100.00
52227;BME280;38190;59.928;10.446;2022-08-19T00:44:57;100335.38;;;14.53;100.00
52227;BME280;38190;59.928;10.446;2022-08-19T00:47:58;100331.84;;;14.54;100.00
52227;BME280;38190;59.928;10.446;2022-08-19T00:50:59;100330.94;;;14.56;100.00
52227;BME280;38190;59.928;10.446;2022-08-19T00:54:01;100326.56;;;14.54;100.00
52227;BME280;38190;59.928;10.446;2022-08-19T00:57:04;100319.53;;;14.53;100.00
52227;BME280;38190;59.928;10.446;2022-08-19T01:00:10;100323.09;;;14.52;100.00
52227;BME280;38190;59.928;10.446;2022-08-19T01:03:15;100324.75;;;14.56;100.00
52227;BME280;38190;59.928;10.446;2022-08-19T01:06:16;100334.34;;;14.63;100.00
52227;BME280;38190;59.928;10.446;2022-08-19T01:09:17;100333.41;;;14.66;100.00
52227;BME280;38190;59.928;10.446;2022-08-19T01:12:18;100335.06;;;14.71;100.00
52227;BME280;38190;59.928;10.446;2022-08-19T01:15:22;100341.09;;;14.78;100.00
52227;BME280;38190;59.928;10.446;2022-08-19T01:18:25;100335.81;;;14.78;100.00
52227;BME280;38190;59.928;10.446;2022-08-19T01:21:39;100333.94;;;14.85;100.00
52227;BME280;38190;59.928;10.446;2022-08-19T01:24:41;100343.50;;;14.90;100.00
52227;BME280;38190;59.928;10.446;2022-08-19T01:27:45;100333.78;;;14.91;100.00
52227;BME280;38190;59.928;10.446;2022-08-19T01:30:46;100339.06;;;14.91;100.00
52227;BME280;38190;59.928;10.446;2022-08-19T01:33:47;100332.84;;;14.93;100.00
52227;BME280;38190;59.928;10.446;2022-08-19T01:36:47;100331.88;;;14.98;100.00
52227;BME280;38190;59.928;10.446;2022-08-19T01:39:49;100334.44;;;15.02;100.00
52227;BME280;38190;59.928;10.446;2022-08-19T01:42:50;100328.91;;;15.15;100.00
52227;BME280;38190;59.928;10.446;2022-08-19T01:45:50;100332.28;;;15.21;100.00
52227;BME280;38190;59.928;10.446;2022-08-19T01:48:51;100329.75;;;15.15;100.00
52227;BME280;38190;59.928;10.446;2022-08-19T01:51:52;100328.91;;;15.15;100.00
52227;BME280;38190;59.928;10.446;2022-08-19T01:54:53;100326.22;;;15.16;100.00
52227;BME280;38190;59.928;10.446;2022-08-19T01:57:54;100328.09;;;15.11;100.00
52227;BME280;38190;59.928;10.446;2022-08-19T02:00:56;100336.06;;;15.09;100.00
52227;BME280;38190;59.928;10.446;2022-08-19T02:03:57;100328.09;;;15.11;100.00
52227;BME280;38190;59.928;10.446;2022-08-19T02:06:57;100329.88;;;15.09;100.00
52227;BME280;38190;59.928;10.446;2022-08-19T02:09:58;100335.19;;;15.07;100.00
52227;BME280;38190;59.928;10.446;2022-08-19T02:12:58;100332.63;;;15.04;100.00
52227;BME280;38190;59.928;10.446;2022-08-19T02:15:59;100334.38;;;15.05;100.00
52227;BME280;38190;59.928;10.446;2022-08-19T02:18:59;100336.06;;;15.09;100.00
52227;BME280;38190;59.928;10.446;2022-08-19T02:22:02;100345.28;;;14.90;100.00
52227;BME280;38190;59.928;10.446;2022-08-19T02:25:03;100337.63;;;14.74;100.00
52227;BME280;38190;59.928;10.446;2022-08-19T02:28:05;100335.94;;;14.72;100.00
52227;BME280;38190;59.928;10.446;2022-08-19T02:31:13;100342.31;;;14.58;100.00
52227;BME280;38190;59.928;10.446;2022-08-19T02:34:14;100334.63;;;14.45;100.00
52227;BME280;38190;59.928;10.446;2022-08-19T02:37:15;100344.59;;;14.30;100.00
52227;BME280;38190;59.928;10.446;2022-08-19T02:40:34;100343.16;;;14.12;100.00
52227;BME280;38190;59.928;10.446;2022-08-19T02:43:35;100343.31;;;14.01;100.00
52227;BME280;38190;59.928;10.446;2022-08-19T02:46:40;100345.25;;;13.92;100.00
52227;BME280;38190;59.928;10.446;2022-08-19T02:49:41;100340.16;;;13.81;100.00
52227;BME280;38190;59.928;10.446;2022-08-19T02:52:41;100327.19;;;13.67;100.00
52227;BME280;38190;59.928;10.446;2022-08-19T02:55:43;100341.19;;;13.72;100.00
52227;BME280;38190;59.928;10.446;2022-08-19T02:58:43;100338.69;;;13.61;100.00
52227;BME280;38190;59.928;10.446;2022-08-19T03:01:44;100335.16;;;13.64;100.00
52227;BME280;38190;59.928;10.446;2022-08-19T03:04:45;100344.88;;;13.60;100.00
52227;BME280;38190;59.928;10.446;2022-08-19T03:07:46;100354.66;;;13.52;100.00
52227;BME280;38190;59.928;10.446;2022-08-19T03:10:47;100350.28;;;13.50;100.00
52227;BME280;38190;59.928;10.446;2022-08-19T03:13:47;100353.94;;;13.41;100.00
52227;BME280;38190;59.928;10.446;2022-08-19T03:16:51;100353.94;;;13.41;100.00
52227;BME280;38190;59.928;10.446;2022-08-19T03:19:51;100353.16;;;13.31;100.00
52227;BME280;38190;59.928;10.446;2022-08-19T03:22:52;100353.06;;;13.39;100.00
52227;BME280;38190;59.928;10.446;2022-08-19T03:25:52;100353.97;;;13.39;100.00
52227;BME280;38190;59.928;10.446;2022-08-19T03:28:53;100347.91;;;13.33;100.00
52227;BME280;38190;59.928;10.446;2022-08-19T03:31:54;100341.78;;;13.29;100.00
52227;BME280;38190;59.928;10.446;2022-08-19T03:34:54;100345.31;;;13.25;100.00
52227;BME280;38190;59.928;10.446;2022-08-19T03:37:55;100342.63;;;13.31;100.00
52227;BME280;38190;59.928;10.446;2022-08-19T03:40:56;100347.09;;;13.26;100.00
52227;BME280;38190;59.928;10.446;2022-08-19T03:43:56;100347.16;;;13.18;100.00
52227;BME280;38190;59.928;10.446;2022-08-19T03:46:57;100348.97;;;13.15;100.00
52227;BME280;38190;59.928;10.446;2022-08-19T03:49:58;100355.13;;;13.15;100.00
52227;BME280;38190;59.928;10.446;2022-08-19T03:52:59;100357.00;;;13.05;100.00
52227;BME280;38190;59.928;10.446;2022-08-19T03:56:00;100364.91;;;13.05;100.00
52227;BME280;38190;59.928;10.446;2022-08-19T03:59:01;100372.91;;;12.98;100.00
52227;BME280;38190;59.928;10.446;2022-08-19T04:02:03;100378.28;;;12.88;100.00
52227;BME280;38190;59.928;10.446;2022-08-19T04:05:08;100367.75;;;12.87;100.00
52227;BME280;38190;59.928;10.446;2022-08-19T04:08:08;100380.94;;;12.85;100.00
52227;BME280;38190;59.928;10.446;2022-08-19T04:11:10;100386.25;;;12.81;100.00
52227;BME280;38190;59.928;10.446;2022-08-19T04:14:12;100385.47;;;12.74;100.00
52227;BME280;38190;59.928;10.446;2022-08-19T04:17:12;100391.59;;;12.76;100.00
52227;BME280;38190;59.928;10.446;2022-08-19T04:20:14;100384.59;;;12.73;100.00
52227;BME280;38190;59.928;10.446;2022-08-19T04:23:14;100387.25;;;12.72;100.00
52227;BME280;38190;59.928;10.446;2022-08-19T04:26:16;100382.97;;;12.62;100.00
52227;BME280;38190;59.928;10.446;2022-08-19T04:29:18;100379.47;;;12.61;100.00
52227;BME280;38190;59.928;10.446;2022-08-19T04:32:18;100381.13;;;12.68;100.00
52227;BME280;38190;59.928;10.446;2022-08-19T04:35:19;100368.84;;;12.69;100.00
52227;BME280;38190;59.928;10.446;2022-08-19T04:38:20;100362.72;;;12.68;100.00
52227;BME280;38190;59.928;10.446;2022-08-19T04:41:22;100371.47;;;12.69;100.00
52227;BME280;38190;59.928;10.446;2022-08-19T04:44:41;100376.75;;;12.66;100.00
52227;BME280;38190;59.928;10.446;2022-08-19T04:47:42;100382.94;;;12.63;100.00
52227;BME280;38190;59.928;10.446;2022-08-19T04:50:44;100382.03;;;12.66;100.00
52227;BME280;38190;59.928;10.446;2022-08-19T04:53:44;100379.38;;;12.69;100.00
52227;BME280;38190;59.928;10.446;2022-08-19T04:56:46;100385.53;;;12.68;100.00
52227;BME280;38190;59.928;10.446;2022-08-19T04:59:46;100384.63;;;12.69;100.00
52227;BME280;38190;59.928;10.446;2022-08-19T05:02:46;100396.03;;;12.71;100.00
52227;BME280;38190;59.928;10.446;2022-08-19T05:05:48;100408.38;;;12.64;100.00
52227;BME280;38190;59.928;10.446;2022-08-19T05:08:49;100404.88;;;12.64;100.00
52227;BME280;38190;59.928;10.446;2022-08-19T05:11:49;100400.47;;;12.66;100.00
52227;BME280;38190;59.928;10.446;2022-08-19T05:14:52;100405.59;;;12.83;100.00
52227;BME280;38190;59.928;10.446;2022-08-19T05:17:54;100402.81;;;12.93;100.00
52227;BME280;38190;59.928;10.446;2022-08-19T05:21:14;100413.28;;;13.01;100.00
52227;BME280;38190;59.928;10.446;2022-08-19T05:24:33;100422.09;;;12.97;100.00
52227;BME280;38190;59.928;10.446;2022-08-19T05:27:34;100416.72;;;13.08;100.00
52227;BME280;38190;59.928;10.446;2022-08-19T05:30:34;100420.19;;;13.11;100.00
52227;BME280;38190;59.928;10.446;2022-08-19T05:33:35;100424.34;;;13.31;100.00
52227;BME280;38190;59.928;10.446;2022-08-19T05:36:37;100429.63;;;13.33;100.00
52227;BME280;38190;59.928;10.446;2022-08-19T05:39:39;100425.00;;;13.50;100.00
52227;BME280;38190;59.928;10.446;2022-08-19T05:42:40;100423.06;;;13.63;100.00
52227;BME280;38190;59.928;10.446;2022-08-19T05:45:41;100428.28;;;13.68;100.00
52227;BME280;38190;59.928;10.446;2022-08-19T05:48:42;100431.94;;;13.57;100.00
52227;BME280;38190;59.928;10.446;2022-08-19T05:51:42;100430.97;;;13.64;100.00
52227;BME280;38190;59.928;10.446;2022-08-19T05:54:43;100430.91;;;13.69;100.00
52227;BME280;38190;59.928;10.446;2022-08-19T05:57:45;100436.97;;;13.76;100.00
52227;BME280;38190;59.928;10.446;2022-08-19T06:00:45;100425.47;;;13.80;100.00
52227;BME280;38190;59.928;10.446;2022-08-19T06:03:45;100424.44;;;13.90;100.00
52227;BME280;38190;59.928;10.446;2022-08-19T06:06:49;100425.25;;;13.95;100.00
52227;BME280;38190;59.928;10.446;2022-08-19T06:09:50;100417.06;;;14.12;100.00
52227;BME280;38190;59.928;10.446;2022-08-19T06:12:50;100427.31;;;14.32;100.00
52227;BME280;38190;59.928;10.446;2022-08-19T06:15:51;100428.34;;;14.76;100.00
52227;BME280;38190;59.928;10.446;2022-08-19T06:18:52;100424.66;;;14.84;100.00
52227;BME280;38190;59.928;10.446;2022-08-19T06:21:52;100436.13;;;14.83;100.00
52227;BME280;38190;59.928;10.446;2022-08-19T06:24:53;100429.75;;;14.94;100.00
52227;BME280;38190;59.928;10.446;2022-08-19T06:27:54;100429.59;;;15.02;100.00
52227;BME280;38190;59.928;10.446;2022-08-19T06:30:54;100430.06;;;15.24;100.00
52227;BME280;38190;59.928;10.446;2022-08-19T06:33:54;100430.59;;;15.40;100.00
52227;BME280;38190;59.928;10.446;2022-08-19T06:36:55;100436.78;;;15.41;100.00
52227;BME280;38190;59.928;10.446;2022-08-19T06:39:56;100431.25;;;15.50;100.00
52227;BME280;38190;59.928;10.446;2022-08-19T06:42:57;100428.09;;;15.76;100.00
52227;BME280;38190;59.928;10.446;2022-08-19T06:45:59;100432.81;;;16.01;100.00
52227;BME280;38190;59.928;10.446;2022-08-19T06:49:00;100426.28;;;16.16;100.00
52227;BME280;38190;59.928;10.446;2022-08-19T06:52:01;100414.38;;;16.34;100.00
52227;BME280;38190;59.928;10.446;2022-08-19T06:55:02;100417.44;;;16.51;100.00
52227;BME280;38190;59.928;10.446;2022-08-19T06:58:03;100423.34;;;16.27;100.00
52227;BME280;38190;59.928;10.446;2022-08-19T07:01:04;100418.94;;;16.61;99.91
52227;BME280;38190;59.928;10.446;2022-08-19T07:04:05;100426.53;;;16.75;99.34
52227;BME280;38190;59.928;10.446;2022-08-19T07:07:08;100427.72;;;16.64;99.77
52227;BME280;38190;59.928;10.446;2022-08-19T07:10:08;100437.44;;;16.97;98.50
52227;BME280;38190;59.928;10.446;2022-08-19T07:13:09;100428.81;;;17.22;91.46
52227;BME280;38190;59.928;10.446;2022-08-19T07:16:12;100427.00;;;17.23;94.24
52227;BME280;38190;59.928;10.446;2022-08-19T07:19:12;100430.28;;;17.32;91.76
52227;BME280;38190;59.928;10.446;2022-08-19T07:22:13;100430.94;;;17.09;94.90
52227;BME280;38190;59.928;10.446;2022-08-19T07:25:14;100426.13;;;17.24;94.29
52227;BME280;38190;59.928;10.446;2022-08-19T07:28:17;100431.66;;;17.46;94.65
52227;BME280;38190;59.928;10.446;2022-08-19T07:31:20;100433.38;;;17.77;87.97
52227;BME280;38190;59.928;10.446;2022-08-19T07:34:20;100435.53;;;17.34;83.96
52227;BME280;38190;59.928;10.446;2022-08-19T07:37:21;100434.88;;;17.57;88.17
52227;BME280;38190;59.928;10.446;2022-08-19T07:40:21;100437.06;;;17.43;87.01
52227;BME280;38190;59.928;10.446;2022-08-19T07:43:22;100432.22;;;17.57;87.14
52227;BME280;38190;59.928;10.446;2022-08-19T07:46:25;100437.91;;;17.45;88.90
52227;BME280;38190;59.928;10.446;2022-08-19T07:49:27;100446.25;;;17.61;87.77
52227;BME280;38190;59.928;10.446;2022-08-19T07:52:27;100451.97;;;17.47;86.52
52227;BME280;38190;59.928;10.446;2022-08-19T07:55:28;100462.75;;;17.41;87.20
52227;BME280;38190;59.928;10.446;2022-08-19T07:58:29;100481.00;;;17.53;88.20
52227;BME280;38190;59.928;10.446;2022-08-19T08:01:30;100483.56;;;17.56;89.49
52227;BME280;38190;59.928;10.446;2022-08-19T08:04:30;100484.66;;;17.79;88.93
52227;BME280;38190;59.928;10.446;2022-08-19T08:07:49;100489.13;;;17.47;87.75
52227;BME280;38190;59.928;10.446;2022-08-19T08:11:08;100485.25;;;17.27;88.68
52227;BME280;38190;59.928;10.446;2022-08-19T08:14:10;100481.13;;;17.17;89.61
52227;BME280;38190;59.928;10.446;2022-08-19T08:17:11;100490.09;;;17.13;87.60
52227;BME280;38190;59.928;10.446;2022-08-19T08:20:12;100492.72;;;17.44;87.47
52227;BME280;38190;59.928;10.446;2022-08-19T08:23:13;100504.75;;;17.89;88.55
52227;BME280;38190;59.928;10.446;2022-08-19T08:26:25;100500.31;;;17.58;84.77
52227;BME280;38190;59.928;10.446;2022-08-19T08:29:26;100511.28;;;17.76;85.05
52227;BME280;38190;59.928;10.446;2022-08-19T08:32:27;100505.56;;;18.48;84.69
52227;BME280;38190;59.928;10.446;2022-08-19T08:35:27;100512.03;;;19.19;80.58
52227;BME280;38190;59.928;10.446;2022-08-19T08:38:28;100505.09;;;19.64;76.52
52227;BME280;38190;59.928;10.446;2022-08-19T08:47:51;100495.13;;;19.45;77.44
52227;BME280;38190;59.928;10.446;2022-08-19T08:50:54;100491.94;;;19.59;73.35
52227;BME280;38190;59.928;10.446;2022-08-19T08:53:54;100497.19;;;19.37;75.92
52227;BME280;38190;59.928;10.446;2022-08-19T08:56:56;100503.78;;;19.76;74.84
52227;BME280;38190;59.928;10.446;2022-08-19T08:59:56;100503.06;;;20.18;74.85
52227;BME280;38190;59.928;10.446;2022-08-19T09:02:58;100502.38;;;20.35;74.64
52227;BME280;38190;59.928;10.446;2022-08-19T09:06:04;100507.69;;;20.35;74.29
52227;BME280;38190;59.928;10.446;2022-08-19T09:09:17;100511.00;;;20.19;74.05
52227;BME280;38190;59.928;10.446;2022-08-19T09:15:25;100519.44;;;20.95;75.47
52227;BME280;38190;59.928;10.446;2022-08-19T09:18:42;100507.03;;;21.94;70.59
52227;BME280;38190;59.928;10.446;2022-08-19T09:21:42;100500.41;;;23.28;63.05
52227;BME280;38190;59.928;10.446;2022-08-19T09:24:43;100506.00;;;23.06;64.87
52227;BME280;38190;59.928;10.446;2022-08-19T09:27:43;100500.03;;;23.85;61.27
52227;BME280;38190;59.928;10.446;2022-08-19T09:30:44;100498.16;;;23.70;63.62
52227;BME280;38190;59.928;10.446;2022-08-19T09:33:44;100504.44;;;23.37;58.88
52227;BME280;38190;59.928;10.446;2022-08-19T09:36:45;100505.13;;;23.40;62.11
52227;BME280;38190;59.928;10.446;2022-08-19T09:39:45;100502.09;;;23.80;62.52
52227;BME280;38190;59.928;10.446;2022-08-19T09:42:46;100501.75;;;23.19;61.83
52227;BME280;38190;59.928;10.446;2022-08-19T09:45:47;100495.81;;;22.24;61.58
52227;BME280;38190;59.928;10.446;2022-08-19T09:48:48;100502.84;;;22.80;63.83
52227;BME280;38190;59.928;10.446;2022-08-19T09:51:50;100494.84;;;23.82;61.17
52227;BME280;38190;59.928;10.446;2022-08-19T09:54:52;100493.25;;;23.78;57.05
52227;BME280;38190;59.928;10.446;2022-08-19T09:57:53;100497.38;;;22.47;61.82
52227;BME280;38190;59.928;10.446;2022-08-19T10:00:54;100495.06;;;22.76;65.58
52227;BME280;38190;59.928;10.446;2022-08-19T10:03:55;100489.78;;;22.74;62.22
52227;BME280;38190;59.928;10.446;2022-08-19T10:06:56;100491.84;;;23.04;64.27
52227;BME280;38190;59.928;10.446;2022-08-19T10:09:56;100489.72;;;22.76;63.00
52227;BME280;38190;59.928;10.446;2022-08-19T10:12:57;100497.31;;;23.36;62.08
52227;BME280;38190;59.928;10.446;2022-08-19T10:16:05;100497.72;;;23.62;57.79
52227;BME280;38190;59.928;10.446;2022-08-19T10:19:07;100501.50;;;21.80;65.30
52227;BME280;38190;59.928;10.446;2022-08-19T10:22:08;100493.25;;;21.65;66.81
52227;BME280;38190;59.928;10.446;2022-08-19T10:25:11;100480.97;;;21.41;65.13
52227;BME280;38190;59.928;10.446;2022-08-19T10:28:12;100496.88;;;21.23;63.79
52227;BME280;38190;59.928;10.446;2022-08-19T10:31:15;100492.72;;;21.36;69.61
52227;BME280;38190;59.928;10.446;2022-08-19T10:34:17;100488.88;;;21.02;63.35
52227;BME280;38190;59.928;10.446;2022-08-19T10:37:17;100490.06;;;20.75;66.25
52227;BME280;38190;59.928;10.446;2022-08-19T10:40:18;100489.97;;;20.56;66.79
52227;BME280;38190;59.928;10.446;2022-08-19T10:43:18;100479.88;;;20.20;66.07
52227;BME280;38190;59.928;10.446;2022-08-19T10:46:18;100486.19;;;20.39;68.33
52227;BME280;38190;59.928;10.446;2022-08-19T10:49:19;100478.28;;;20.58;68.63
52227;BME280;38190;59.928;10.446;2022-08-19T10:52:19;100465.34;;;20.71;68.05
52227;BME280;38190;59.928;10.446;2022-08-19T10:55:35;100460.00;;;20.49;68.64
52227;BME280;38190;59.928;10.446;2022-08-19T10:58:54;100460.44;;;21.01;70.03
52227;BME280;38190;59.928;10.446;2022-08-19T11:02:00;100460.06;;;21.11;68.08
52227;BME280;38190;59.928;10.446;2022-08-19T11:05:00;100464.94;;;21.01;69.73
52227;BME280;38190;59.928;10.446;2022-08-19T11:08:01;100472.19;;;21.18;66.73
52227;BME280;38190;59.928;10.446;2022-08-19T11:11:01;100473.66;;;21.25;69.27
52227;BME280;38190;59.928;10.446;2022-08-19T11:14:03;100478.16;;;21.04;68.48
52227;BME280;38190;59.928;10.446;2022-08-19T11:17:04;100473.94;;;21.19;66.85
52227;BME280;38190;59.928;10.446;2022-08-19T11:20:04;100477.75;;;20.93;67.41
52227;BME280;38190;59.928;10.446;2022-08-19T11:23:05;100478.78;;;21.30;66.92
52227;BME280;38190;59.928;10.446;2022-08-19T11:26:06;100475.28;;;21.09;68.45
52227;BME280;38190;59.928;10.446;2022-08-19T11:30:11;100469.44;;;21.40;63.19
52227;BME280;38190;59.928;10.446;2022-08-19T11:33:12;100468.81;;;21.54;65.05
52227;BME280;38190;59.928;10.446;2022-08-19T11:36:13;100461.09;;;21.48;67.47
52227;BME280;38190;59.928;10.446;2022-08-19T11:39:15;100464.28;;;21.75;65.47
52227;BME280;38190;59.928;10.446;2022-08-19T11:42:17;100462.03;;;21.66;65.38
52227;BME280;38190;59.928;10.446;2022-08-19T11:45:40;100457.25;;;22.10;61.80
52227;BME280;38190;59.928;10.446;2022-08-19T11:48:42;100461.19;;;21.45;64.66
52227;BME280;38190;59.928;10.446;2022-08-19T11:51:43;100468.72;;;22.12;62.83
52227;BME280;38190;59.928;10.446;2022-08-19T11:54:43;100475.69;;;22.53;63.15
52227;BME280;38190;59.928;10.446;2022-08-19T11:57:44;100467.78;;;22.14;64.77
52227;BME280;38190;59.928;10.446;2022-08-19T12:00:44;100474.50;;;22.22;59.81
52227;BME280;38190;59.928;10.446;2022-08-19T12:03:47;100467.44;;;22.58;59.79
52227;BME280;38190;59.928;10.446;2022-08-19T12:06:48;100467.91;;;22.66;63.40
52227;BME280;38190;59.928;10.446;2022-08-19T12:09:50;100458.59;;;22.19;63.08
52227;BME280;38190;59.928;10.446;2022-08-19T12:12:50;100456.56;;;22.43;63.74
52227;BME280;38190;59.928;10.446;2022-08-19T12:15:51;100453.00;;;21.87;59.67
52227;BME280;38190;59.928;10.446;2022-08-19T12:18:54;100458.72;;;21.99;61.77
52227;BME280;38190;59.928;10.446;2022-08-19T12:21:59;100468.75;;;21.74;63.46
52227;BME280;38190;59.928;10.446;2022-08-19T12:25:01;100462.75;;;21.69;63.02
52227;BME280;38190;59.928;10.446;2022-08-19T12:28:03;100454.13;;;21.04;61.08
52227;BME280;38190;59.928;10.446;2022-08-19T12:31:04;100448.28;;;21.35;62.24
52227;BME280;38190;59.928;10.446;2022-08-19T12:34:05;100459.16;;;21.70;60.77
52227;BME280;38190;59.928;10.446;2022-08-19T12:37:06;100452.88;;;22.27;58.73
52227;BME280;38190;59.928;10.446;2022-08-19T12:40:08;100461.28;;;22.73;56.30
52227;BME280;38190;59.928;10.446;2022-08-19T12:43:08;100455.66;;;22.06;60.88
52227;BME280;38190;59.928;10.446;2022-08-19T12:46:10;100457.66;;;22.57;61.93
52227;BME280;38190;59.928;10.446;2022-08-19T12:49:11;100450.25;;;23.14;55.89
52227;BME280;38190;59.928;10.446;2022-08-19T12:52:12;100445.97;;;23.28;54.93
52227;BME280;38190;59.928;10.446;2022-08-19T12:55:16;100454.34;;;23.71;56.83
52227;BME280;38190;59.928;10.446;2022-08-19T12:58:18;100435.22;;;23.45;57.67
52227;BME280;38190;59.928;10.446;2022-08-19T13:01:20;100452.50;;;24.05;53.10
52227;BME280;38190;59.928;10.446;2022-08-19T13:04:20;100440.31;;;24.29;54.13
52227;BME280;38190;59.928;10.446;2022-08-19T13:07:21;100438.00;;;24.23;53.04
52227;BME280;38190;59.928;10.446;2022-08-19T13:10:25;100432.31;;;23.82;54.00
52227;BME280;38190;59.928;10.446;2022-08-19T13:13:27;100437.81;;;22.96;57.48
52227;BME280;38190;59.928;10.446;2022-08-19T13:16:28;100436.13;;;23.28;54.33
52227;BME280;38190;59.928;10.446;2022-08-19T13:19:28;100428.44;;;24.03;53.87
52227;BME280;38190;59.928;10.446;2022-08-19T13:22:30;100426.25;;;23.13;52.75
52227;BME280;38190;59.928;10.446;2022-08-19T13:25:31;100426.31;;;23.76;52.87
52227;BME280;38190;59.928;10.446;2022-08-19T13:28:33;100425.16;;;23.82;54.90
52227;BME280;38190;59.928;10.446;2022-08-19T13:31:52;100427.97;;;24.11;56.60
52227;BME280;38190;59.928;10.446;2022-08-19T13:35:11;100425.34;;;23.95;51.10
52227;BME280;38190;59.928;10.446;2022-08-19T13:38:15;100416.75;;;23.23;56.42
52227;BME280;38190;59.928;10.446;2022-08-19T13:41:16;100420.69;;;22.65;57.15
52227;BME280;38190;59.928;10.446;2022-08-19T13:44:19;100415.97;;;22.53;57.81
52227;BME280;38190;59.928;10.446;2022-08-19T13:47:19;100419.19;;;22.42;55.70
52227;BME280;38190;59.928;10.446;2022-08-19T13:50:22;100418.94;;;22.81;55.96
52227;BME280;38190;59.928;10.446;2022-08-19T13:53:25;100418.81;;;22.50;56.46
52227;BME280;38190;59.928;10.446;2022-08-19T13:56:26;100414.38;;;22.48;56.43
52227;BME280;38190;59.928;10.446;2022-08-19T13:59:26;100409.81;;;22.68;54.94
52227;BME280;38190;59.928;10.446;2022-08-19T14:02:27;100407.50;;;22.95;55.74
52227;BME280;38190;59.928;10.446;2022-08-19T14:05:29;100406.63;;;22.95;53.26
52227;BME280;38190;59.928;10.446;2022-08-19T14:08:30;100406.16;;;23.37;52.45
52227;BME280;38190;59.928;10.446;2022-08-19T14:11:32;100403.91;;;23.30;52.69
52227;BME280;38190;59.928;10.446;2022-08-19T14:14:36;100407.16;;;23.68;54.66
52227;BME280;38190;59.928;10.446;2022-08-19T14:17:38;100403.16;;;24.07;54.32
52227;BME280;38190;59.928;10.446;2022-08-19T14:20:40;100412.34;;;24.03;52.88
52227;BME280;38190;59.928;10.446;2022-08-19T14:23:40;100405.59;;;23.80;54.45
52227;BME280;38190;59.928;10.446;2022-08-19T14:26:41;100403.38;;;24.35;49.94
52227;BME280;38190;59.928;10.446;2022-08-19T14:29:42;100402.22;;;24.08;49.52
52227;BME280;38190;59.928;10.446;2022-08-19T14:32:42;100406.09;;;22.88;53.87
52227;BME280;38190;59.928;10.446;2022-08-19T14:35:45;100406.84;;;22.57;54.66
52227;BME280;38190;59.928;10.446;2022-08-19T14:38:46;100403.53;;;22.52;52.73
52227;BME280;38190;59.928;10.446;2022-08-19T14:41:46;100406.63;;;22.95;56.06
52227;BME280;38190;59.928;10.446;2022-08-19T14:44:47;100406.88;;;22.90;53.60
52227;BME280;38190;59.928;10.446;2022-08-19T14:47:48;100397.84;;;22.93;53.73
52227;BME280;38190;59.928;10.446;2022-08-19T14:50:48;100395.72;;;22.82;52.59
52227;BME280;38190;59.928;10.446;2022-08-19T14:53:50;100392.50;;;22.75;52.57
52227;BME280;38190;59.928;10.446;2022-08-19T14:56:50;100399.97;;;22.86;57.19
52227;BME280;38190;59.928;10.446;2022-08-19T14:59:50;100402.56;;;22.88;53.66
52227;BME280;38190;59.928;10.446;2022-08-19T15:02:51;100401.03;;;22.66;54.18
52227;BME280;38190;59.928;10.446;2022-08-19T15:05:53;100397.00;;;22.75;54.50
52227;BME280;38190;59.928;10.446;2022-08-19T15:08:54;100398.47;;;22.80;53.81
52227;BME280;38190;59.928;10.446;2022-08-19T15:11:55;100396.91;;;22.76;53.66
52227;BME280;38190;59.928;10.446;2022-08-19T15:14:56;100397.47;;;22.65;54.77
52227;BME280;38190;59.928;10.446;2022-08-19T15:17:57;100394.66;;;23.02;55.25
52227;BME280;38190;59.928;10.446;2022-08-19T15:21:03;100392.94;;;23.01;54.08
52227;BME280;38190;59.928;10.446;2022-08-19T15:24:04;100397.72;;;23.12;52.43
52227;BME280;38190;59.928;10.446;2022-08-19T15:27:05;100381.97;;;22.55;54.65
52227;BME280;38190;59.928;10.446;2022-08-19T15:30:08;100386.97;;;22.26;54.07
52227;BME280;38190;59.928;10.446;2022-08-19T15:33:10;100383.94;;;21.97;58.67
52227;BME280;38190;59.928;10.446;2022-08-19T15:36:14;100390.84;;;21.84;57.12
52227;BME280;38190;59.928;10.446;2022-08-19T15:39:15;100383.56;;;21.68;58.66
52227;BME280;38190;59.928;10.446;2022-08-19T15:42:16;100381.63;;;21.89;56.77
52227;BME280;38190;59.928;10.446;2022-08-19T15:45:18;100382.09;;;22.17;54.70